createdAt,value
2023-02-12T00:01:35.698Z,6.62
2023-02-12T00:05:00.882Z,6.61
2023-02-12T00:08:26.071Z,6.64
2023-02-12T00:11:51.283Z,6.69
2023-02-12T00:15:16.484Z,6.71
2023-02-12T00:18:41.658Z,6.74
2023-02-12T00:22:06.843Z,6.76
2023-02-12T00:25:32.022Z,6.73
2023-02-12T00:28:57.345Z,6.69
2023-02-12T00:32:22.450Z,6.7
2023-02-12T00:35:47.667Z,6.71
2023-02-12T00:39:12.867Z,6.74
2023-02-12T00:42:38.042Z,6.76
2023-02-12T00:46:03.301Z,6.78
2023-02-12T00:49:28.446Z,6.77
2023-02-12T00:52:53.644Z,6.77
2023-02-12T00:56:18.884Z,6.71
2023-02-12T00:59:44.110Z,6.67
2023-02-12T01:03:09.344Z,6.63
2023-02-12T01:06:34.536Z,6.62
2023-02-12T01:10:00.273Z,6.63
2023-02-12T01:13:25.512Z,6.66
2023-02-12T01:16:50.717Z,6.7
2023-02-12T01:20:15.928Z,6.76
2023-02-12T01:23:41.099Z,6.77
2023-02-12T01:27:06.316Z,6.75
2023-02-12T01:30:31.528Z,6.74
2023-02-12T01:33:56.718Z,6.72
2023-02-12T01:37:21.918Z,6.76
2023-02-12T01:40:47.099Z,6.76
2023-02-12T01:44:12.264Z,6.78
2023-02-12T01:47:37.485Z,6.8
2023-02-12T01:51:02.691Z,6.79
2023-02-12T01:54:27.900Z,6.8
2023-02-12T01:57:53.087Z,6.82
2023-02-12T02:01:18.332Z,6.82
2023-02-12T02:04:43.486Z,6.83
2023-02-12T02:08:08.686Z,6.84
2023-02-12T02:11:33.917Z,6.85
2023-02-12T02:14:59.078Z,6.85
2023-02-12T02:18:24.304Z,6.88
2023-02-12T02:21:49.528Z,6.87
2023-02-12T02:25:14.720Z,6.87
2023-02-12T02:28:39.941Z,6.85
2023-02-12T02:32:05.197Z,6.84
2023-02-12T02:35:30.293Z,6.82
2023-02-12T02:38:55.497Z,6.82
2023-02-12T02:42:20.682Z,6.83
2023-02-12T02:45:45.928Z,6.83
2023-02-12T02:49:11.139Z,6.83
2023-02-12T02:52:36.305Z,6.85
2023-02-12T02:56:01.497Z,6.86
2023-02-12T02:59:26.723Z,6.86
2023-02-12T03:02:52.000Z,6.9
2023-02-12T03:06:17.184Z,6.92
2023-02-12T03:09:42.355Z,6.94
2023-02-12T03:13:07.610Z,6.97
2023-02-12T03:16:33.000Z,7.02
2023-02-12T03:19:58.003Z,7.04
2023-02-12T03:23:23.230Z,7.07
2023-02-12T03:26:48.389Z,7.11
2023-02-12T03:30:13.584Z,7.12
2023-02-12T03:33:38.813Z,7.16
2023-02-12T03:37:04.058Z,7.17
2023-02-12T03:40:29.316Z,7.19
2023-02-12T03:43:54.476Z,7.18
2023-02-12T03:47:19.681Z,7.19
2023-02-12T03:50:44.872Z,7.22
2023-02-12T03:54:10.113Z,7.24
2023-02-12T03:57:35.283Z,7.28
2023-02-12T04:01:00.467Z,7.32
2023-02-12T04:04:25.718Z,7.33
2023-02-12T04:07:50.829Z,7.31
2023-02-12T04:11:16.039Z,7.3
2023-02-12T04:14:41.315Z,7.32
2023-02-12T04:18:06.566Z,7.33
2023-02-12T04:21:31.784Z,7.36
2023-02-12T04:24:56.974Z,7.37
2023-02-12T04:28:22.185Z,7.35
2023-02-12T04:31:47.580Z,7.32
2023-02-12T04:35:12.587Z,7.3
2023-02-12T04:38:37.806Z,7.27
2023-02-12T04:42:03.058Z,7.25
2023-02-12T04:45:28.252Z,7.24
2023-02-12T04:48:53.481Z,7.23
2023-02-12T04:52:18.644Z,7.25
2023-02-12T04:55:43.821Z,7.26
2023-02-12T04:59:09.009Z,7.29
2023-02-12T05:02:34.190Z,7.31
2023-02-12T05:05:59.404Z,7.32
2023-02-12T05:09:24.571Z,7.33
2023-02-12T05:12:49.762Z,7.3
2023-02-12T05:16:14.958Z,7.28
2023-02-12T05:19:40.121Z,7.27
2023-02-12T05:23:05.347Z,7.26
2023-02-12T05:26:30.515Z,7.24
2023-02-12T05:29:55.696Z,7.24
2023-02-12T05:33:20.895Z,7.25
2023-02-12T05:36:46.109Z,7.27
2023-02-12T05:40:11.334Z,7.33
2023-02-12T05:43:36.523Z,7.36
2023-02-12T05:47:01.714Z,7.42
2023-02-12T05:50:26.883Z,7.48
2023-02-12T05:53:52.132Z,7.52
2023-02-12T05:57:17.375Z,7.53
2023-02-12T06:00:42.567Z,7.54
2023-02-12T06:04:07.795Z,7.52
2023-02-12T06:07:32.929Z,7.51
2023-02-12T06:10:58.142Z,7.49
2023-02-12T06:14:23.376Z,7.51
2023-02-12T06:17:48.556Z,7.56
2023-02-12T06:21:13.794Z,7.6
2023-02-12T06:24:38.980Z,7.6
2023-02-12T06:28:04.211Z,7.6
2023-02-12T06:31:29.612Z,7.6
2023-02-12T06:34:54.654Z,7.57
2023-02-12T06:38:19.838Z,7.55
2023-02-12T06:41:45.051Z,7.51
2023-02-12T06:45:10.241Z,7.47
2023-02-12T06:48:35.484Z,7.42
2023-02-12T06:52:03.283Z,7.39
2023-02-12T06:55:26.597Z,7.35
2023-02-12T06:58:51.802Z,7.33
2023-02-12T07:02:17.024Z,7.33
2023-02-12T07:05:42.245Z,7.35
2023-02-12T07:09:07.430Z,7.37
2023-02-12T07:12:32.813Z,7.39
2023-02-12T07:15:58.300Z,7.43
2023-02-12T07:19:23.160Z,7.49
2023-02-12T07:22:48.387Z,7.57
2023-02-12T07:26:13.610Z,7.64
2023-02-12T07:29:38.864Z,7.69
2023-02-12T07:33:04.097Z,7.74
2023-02-12T07:36:29.272Z,7.8
2023-02-12T07:39:54.610Z,7.82
2023-02-12T07:43:19.720Z,7.83
2023-02-12T07:46:47.803Z,7.85
2023-02-12T07:50:10.196Z,7.84
2023-02-12T07:53:35.390Z,7.85
2023-02-12T07:57:00.642Z,7.84
2023-02-12T08:00:25.981Z,7.85
2023-02-12T08:03:51.558Z,7.87
2023-02-12T08:07:16.705Z,7.89
2023-02-12T08:10:41.904Z,7.93
2023-02-12T08:14:07.183Z,7.98
2023-02-12T08:17:32.401Z,8.03
2023-02-12T08:20:57.624Z,8.08
2023-02-12T08:24:22.840Z,8.1
2023-02-12T08:27:48.029Z,8.12
2023-02-12T08:31:13.330Z,8.14
2023-02-12T08:34:38.480Z,8.18
2023-02-12T08:38:03.717Z,8.21
2023-02-12T08:41:28.892Z,8.22
2023-02-12T08:44:54.102Z,8.2
2023-02-12T08:48:19.369Z,8.19
2023-02-12T08:51:44.559Z,8.19
2023-02-12T08:55:09.772Z,8.2
2023-02-12T08:58:34.980Z,8.23
2023-02-12T09:02:00.306Z,8.25
2023-02-12T09:05:25.441Z,8.24
2023-02-12T09:08:50.604Z,8.24
2023-02-12T09:12:15.834Z,8.29
2023-02-12T09:15:42.769Z,8.32
2023-02-12T09:19:06.268Z,8.34
2023-02-12T09:22:31.531Z,8.34
2023-02-12T09:25:57.049Z,8.36
2023-02-12T09:29:21.900Z,8.39
2023-02-12T09:32:47.466Z,8.41
2023-02-12T09:36:12.680Z,8.43
2023-02-12T09:39:37.878Z,8.44
2023-02-12T09:43:03.041Z,8.49
2023-02-12T09:46:28.293Z,8.57
2023-02-12T09:49:53.429Z,8.61
2023-02-12T09:53:18.634Z,8.66
2023-02-12T09:56:43.864Z,8.69
2023-02-12T10:00:09.042Z,8.73
2023-02-12T10:03:34.222Z,8.75
2023-02-12T10:06:59.429Z,8.8
2023-02-12T10:10:24.601Z,8.88
2023-02-12T10:13:49.816Z,8.96
2023-02-12T10:17:14.978Z,9.01
2023-02-12T10:20:41.454Z,9
2023-02-12T10:24:05.332Z,9.02
2023-02-12T10:27:30.517Z,9.06
2023-02-12T10:30:55.827Z,9.09
2023-02-12T10:34:20.844Z,9.08
2023-02-12T10:37:46.017Z,9.11
2023-02-12T10:41:11.202Z,9.12
2023-02-12T10:44:36.407Z,9.12
2023-02-12T10:48:01.615Z,9.14
2023-02-12T10:51:26.757Z,9.17
2023-02-12T10:54:52.127Z,9.15
2023-02-12T10:58:17.323Z,9.12
2023-02-12T11:01:42.539Z,9.13
2023-02-12T11:05:07.783Z,9.13
2023-02-12T11:08:32.838Z,9.2
2023-02-12T11:11:58.013Z,9.29
2023-02-12T11:15:23.201Z,9.33
2023-02-12T11:18:48.408Z,9.38
2023-02-12T11:22:13.632Z,9.46
2023-02-12T11:25:38.786Z,9.53
2023-02-12T11:29:04.199Z,9.58
2023-02-12T11:32:29.190Z,9.62
2023-02-12T11:35:54.363Z,9.67
2023-02-12T11:39:19.576Z,9.69
2023-02-12T11:42:44.754Z,9.71
2023-02-12T11:46:09.930Z,9.71
2023-02-12T11:49:35.110Z,9.75
2023-02-12T11:53:00.300Z,9.77
2023-02-12T11:56:25.520Z,9.79
2023-02-12T11:59:50.688Z,9.81
2023-02-12T12:03:15.884Z,9.83
2023-02-12T12:06:41.032Z,9.85
2023-02-12T12:10:06.238Z,9.86
2023-02-12T12:13:31.426Z,9.88
2023-02-12T12:16:56.664Z,9.94
2023-02-12T12:20:21.848Z,9.93
2023-02-12T12:23:47.783Z,9.92
2023-02-12T12:27:12.921Z,9.93
2023-02-12T12:30:38.280Z,9.95
2023-02-12T12:34:03.411Z,9.97
2023-02-12T12:37:28.615Z,10.01
2023-02-12T12:40:53.836Z,10.02
2023-02-12T12:44:19.065Z,10.07
2023-02-12T12:47:44.346Z,10.11
2023-02-12T12:51:09.514Z,10.11
2023-02-12T12:54:34.703Z,10.09
2023-02-12T12:57:59.949Z,10.1
2023-02-12T13:01:25.249Z,10.08
2023-02-12T13:04:50.420Z,10.06
2023-02-12T13:08:15.562Z,10.06
2023-02-12T13:11:40.741Z,10.08
2023-02-12T13:15:05.968Z,10.1
2023-02-12T13:18:31.160Z,10.1
2023-02-12T13:21:56.465Z,10.09
2023-02-12T13:25:21.617Z,10.11
2023-02-12T13:28:46.837Z,10.12
2023-02-12T13:32:12.157Z,10.14
2023-02-12T13:35:37.193Z,10.16
2023-02-12T13:39:02.387Z,10.16
2023-02-12T13:42:27.512Z,10.17
2023-02-12T13:45:52.707Z,10.15
2023-02-12T13:49:17.860Z,10.15
2023-02-12T13:52:43.019Z,10.15
2023-02-12T13:56:08.254Z,10.14
2023-02-12T13:59:33.399Z,10.13
2023-02-12T14:02:58.573Z,10.11
2023-02-12T14:06:23.748Z,10.09
2023-02-12T14:09:48.898Z,10.04
2023-02-12T14:13:14.105Z,10.02
2023-02-12T14:16:39.242Z,10.01
2023-02-12T14:20:04.405Z,9.97
2023-02-12T14:23:29.604Z,9.97
2023-02-12T14:26:54.744Z,9.95
2023-02-12T14:30:19.959Z,9.95
2023-02-12T15:03:44.600Z,7.36
2023-02-12T15:07:09.765Z,8.31
2023-02-12T15:10:34.996Z,8.54
2023-02-12T15:14:00.171Z,8.75
2023-02-12T15:17:25.778Z,8.92
2023-02-12T15:20:51.032Z,9.07
2023-02-12T15:24:16.252Z,9.15
2023-02-12T15:27:41.534Z,9.2
2023-02-12T15:31:06.838Z,9.22
2023-02-12T15:34:32.009Z,9.24
2023-02-12T15:37:57.263Z,9.27
2023-02-12T15:41:22.402Z,9.31
2023-02-12T15:44:47.574Z,9.32
2023-02-12T15:48:12.748Z,9.3
2023-02-12T15:51:37.923Z,9.27
2023-02-12T15:55:03.125Z,9.28
2023-02-12T15:58:28.269Z,9.25
2023-02-12T16:01:53.482Z,9.25
2023-02-12T16:05:18.627Z,9.24
2023-02-12T16:08:43.815Z,9.24
2023-02-12T16:12:09.076Z,9.24
2023-02-12T16:15:34.235Z,9.24
2023-02-12T16:18:59.399Z,9.22
2023-02-12T16:22:24.613Z,9.2
2023-02-12T16:25:49.790Z,9.2
2023-02-12T16:29:16.098Z,9.2
2023-02-12T16:32:41.350Z,9.18
2023-02-12T16:36:06.723Z,9.16
2023-02-12T16:39:31.903Z,9.11
2023-02-12T16:42:57.083Z,9.09
2023-02-12T16:46:22.323Z,9.08
2023-02-12T16:49:47.464Z,9.05
2023-02-12T16:53:12.674Z,9
2023-02-12T16:56:37.931Z,8.96
2023-02-12T17:00:03.098Z,8.9
2023-02-12T17:03:28.347Z,8.86
2023-02-12T17:06:53.480Z,8.83
2023-02-12T17:10:18.738Z,8.83
2023-02-12T17:13:43.987Z,8.83
2023-02-12T17:17:09.290Z,8.82
2023-02-12T17:20:35.208Z,8.8
2023-02-12T17:24:00.390Z,8.79
2023-02-12T17:27:25.582Z,8.8
2023-02-12T17:30:50.927Z,8.79
2023-02-12T17:34:16.101Z,8.8
2023-02-12T17:37:41.355Z,8.8
2023-02-12T17:41:06.611Z,8.8
2023-02-12T17:44:31.829Z,8.8
2023-02-12T17:48:00.180Z,8.83
2023-02-12T17:51:25.752Z,8.82
2023-02-12T17:54:51.108Z,8.83
2023-02-12T17:58:16.307Z,8.85
2023-02-12T18:01:42.512Z,8.83
2023-02-12T18:05:07.859Z,8.85
2023-02-12T18:08:33.109Z,8.84
2023-02-12T18:11:58.416Z,8.82
2023-02-12T18:15:23.598Z,8.8
2023-02-12T18:18:49.218Z,8.77
2023-02-12T18:22:14.442Z,8.75
2023-02-12T18:25:39.670Z,8.74
2023-02-12T18:29:04.952Z,8.72
2023-02-12T18:32:30.170Z,8.68
2023-02-12T18:35:55.415Z,8.65
2023-02-12T18:39:20.661Z,8.63
2023-02-12T18:42:45.880Z,8.63
2023-02-12T18:46:11.575Z,8.66
2023-02-12T18:49:37.005Z,8.63
2023-02-12T18:53:02.284Z,8.61
2023-02-12T18:56:27.482Z,8.62
2023-02-12T18:59:52.725Z,8.62
2023-02-12T19:03:17.985Z,8.61
2023-02-12T19:06:43.165Z,8.61
2023-02-12T19:10:08.454Z,8.58
2023-02-12T19:13:33.700Z,8.57
2023-02-12T19:16:58.940Z,8.54
2023-02-12T19:20:24.192Z,8.54
2023-02-12T19:23:49.403Z,8.54
2023-02-12T19:27:14.626Z,8.55
2023-02-12T19:30:39.894Z,8.52
2023-02-12T19:34:05.045Z,8.49
2023-02-12T19:37:30.281Z,8.46
2023-02-12T19:40:55.882Z,8.43
2023-02-12T19:44:20.804Z,8.41
2023-02-12T19:47:46.034Z,8.4
2023-02-12T19:51:11.334Z,8.42
2023-02-12T19:54:36.607Z,8.4
2023-02-12T19:58:01.813Z,8.38
2023-02-12T20:01:27.186Z,8.35
2023-02-12T20:04:52.260Z,8.33
2023-02-12T20:08:17.509Z,8.31
2023-02-12T20:11:42.833Z,8.32
2023-02-12T20:15:08.012Z,8.33
2023-02-12T20:18:33.244Z,8.27
2023-02-12T20:21:58.477Z,8.23
2023-02-12T20:25:23.690Z,8.2
2023-02-12T20:28:48.938Z,8.17
2023-02-12T20:32:14.272Z,8.12
2023-02-12T20:35:39.418Z,8.09
2023-02-12T20:39:04.651Z,8.06
2023-02-12T20:42:29.893Z,8.07
2023-02-12T20:45:55.143Z,8.06
2023-02-12T20:49:20.361Z,8.03
2023-02-12T20:52:45.612Z,8.04
2023-02-12T20:56:10.885Z,8.04
2023-02-12T20:59:36.102Z,8.07
2023-02-12T21:03:01.463Z,8.09
2023-02-12T21:06:26.572Z,8.09
2023-02-12T21:09:51.829Z,8.09
2023-02-12T21:13:16.978Z,8.08
2023-02-12T21:16:42.166Z,8.08
2023-02-12T21:20:07.383Z,8.05
2023-02-12T21:23:32.556Z,8.02
2023-02-12T21:26:57.753Z,7.98
2023-02-12T21:30:22.954Z,7.96
2023-02-12T21:33:48.142Z,7.97
2023-02-12T21:37:13.340Z,7.97
2023-02-12T21:40:38.510Z,7.99
2023-02-12T21:44:03.701Z,8.02
2023-02-12T21:47:28.852Z,7.99
2023-02-12T21:50:54.033Z,7.97
2023-02-12T21:54:19.264Z,7.95
2023-02-12T21:57:44.415Z,7.94
2023-02-12T22:01:09.670Z,7.92
2023-02-12T22:04:34.783Z,7.91
2023-02-12T22:07:59.937Z,7.91
2023-02-12T22:11:25.145Z,7.92
2023-02-12T22:14:50.289Z,7.93
2023-02-12T22:18:15.488Z,7.92
2023-02-12T22:21:40.655Z,7.9
2023-02-12T22:25:05.843Z,7.91
2023-02-12T22:28:31.059Z,7.9
2023-02-12T22:31:56.260Z,7.89
2023-02-12T22:35:21.384Z,7.87
2023-02-12T22:38:46.588Z,7.87
2023-02-12T22:42:11.773Z,7.88
2023-02-12T22:45:37.041Z,7.86
2023-02-12T22:49:02.139Z,7.86
2023-02-12T22:52:27.306Z,7.84
2023-02-12T22:55:52.485Z,7.8
2023-02-12T22:59:17.679Z,7.8
2023-02-12T23:02:42.881Z,7.8
2023-02-12T23:06:08.026Z,7.78
2023-02-12T23:09:33.211Z,7.74
2023-02-12T23:12:58.389Z,7.74
2023-02-12T23:16:23.630Z,7.75
2023-02-12T23:19:48.796Z,7.75
2023-02-12T23:23:13.956Z,7.74
2023-02-12T23:26:39.143Z,7.72
2023-02-12T23:30:04.725Z,7.72
2023-02-12T23:33:29.868Z,7.72
2023-02-12T23:36:55.092Z,7.73
2023-02-12T23:40:20.266Z,7.71
2023-02-12T23:43:45.449Z,7.72
2023-02-12T23:47:10.621Z,7.71
2023-02-12T23:50:35.838Z,7.68
2023-02-12T23:54:01.029Z,7.65
2023-02-12T23:57:26.176Z,7.61
